Najora — FGE5068 — position and weather

sailwx.info

Track history (hours):
 
Tides and Currents Weather Stations Pressure Air Temp Water Temp Dewpoint Dewpoint Depression Visibility Wind Speed Wind Dir Waves Ship Positions

Najora

Last reported at 2017-Nov-14 04:42 UTC. Time now 2017-Nov-21 19:20 UTC.
Position N 27°54' W 015°14'.

Length 14 m.

Type: Sailing vessel. MMSI: 227647840.

Date/timePositionNaut miles runAvg speedWind from/ knotsBaromVisibWave heightAir tempDewpointWater temp
2017-Nov-14 04:42N 27°54' W 015°14'2 6.4
2017-Nov-14 04:22N 27°56' W 015°15'2 5.9
2017-Nov-14 04:00N 27°57' W 015°17'3 5.2
2017-Nov-14 03:30N 27°60' W 015°18'3 5.6
2017-Nov-14 03:00N 28°02' W 015°20'3 5.7
2017-Nov-14 02:30N 28°04' W 015°22'3 5.0
2017-Nov-14 01:58N 28°06' W 015°24'2 1.5
2017-Nov-14 00:40N 28°08' W 015°26'0 0.0
2017-Nov-14 00:25N 28°08' W 015°26'0 0.0
2017-Nov-13 23:58N 28°08' W 015°26'0 0.0
2017-Nov-13 23:28N 28°08' W 015°26'0 0.0
2017-Nov-13 22:52N 28°08' W 015°26'0 0.0
2017-Nov-13 22:25N 28°08' W 015°26'0 0.0
2017-Nov-13 21:55N 28°08' W 015°26'0 0.0
2017-Nov-12 21:55N 28°08' W 015°26'0 0.0
2017-Nov-12 18:43N 28°08' W 015°26'0 0.0
2017-Nov-12 18:28N 28°08' W 015°26'0 0.0
2017-Nov-12 17:49N 28°08' W 015°26'0 0.0
2017-Nov-12 17:19N 28°08' W 015°26'0 0.0
2017-Nov-12 16:52N 28°08' W 015°26'0 0.0
2017-Nov-12 16:22N 28°08' W 015°26'0 0.0
2017-Nov-12 15:46N 28°08' W 015°26'0 0.0
2017-Nov-12 15:22N 28°08' W 015°26'0 0.0
2017-Nov-12 14:52N 28°08' W 015°26'0 0.0
2017-Nov-12 14:22N 28°08' W 015°26'0 0.0
2017-Nov-12 13:34N 28°08' W 015°26'0 0.0
2017-Nov-12 13:25N 28°08' W 015°26'0 0.0
2017-Nov-12 12:55N 28°08' W 015°26'0 0.0
2017-Nov-12 12:22N 28°08' W 015°26'0 0.0
2017-Nov-12 11:58N 28°08' W 015°26'0 0.0
2017-Nov-12 11:28N 28°08' W 015°26'0 0.0
2017-Nov-12 10:55N 28°08' W 015°26'0 0.0
2017-Nov-12 10:22N 28°08' W 015°26'0 0.8
2017-Nov-12 10:00N 28°08' W 015°26'0 0.0
2017-Nov-12 09:30N 28°08' W 015°26'0 0.0
2017-Nov-12 09:00N 28°08' W 015°26'0 0.0
2017-Nov-12 08:30N 28°08' W 015°26'1 1.5
2017-Nov-12 08:00N 28°07' W 015°26'1 1.5
2017-Nov-12 07:30N 28°08' W 015°26'0 0.0
2017-Nov-12 06:51N 28°08' W 015°26'0 0.0
2017-Nov-12 06:21N 28°08' W 015°26'0 0.0
2017-Nov-12 05:51N 28°08' W 015°26'0 0.0
2017-Nov-12 05:24N 28°08' W 015°26'0 0.0
2017-Nov-12 04:54N 28°08' W 015°26'0 0.0
2017-Nov-12 04:24N 28°08' W 015°26'0 0.0
2017-Nov-12 03:54N 28°08' W 015°26'0 0.0
2017-Nov-12 03:24N 28°08' W 015°26'0 0.0
2017-Nov-12 02:57N 28°08' W 015°26'0 0.0
2017-Nov-12 02:27N 28°08' W 015°26'0 0.0
2017-Nov-12 01:57N 28°08' W 015°26'0 0.0
2017-Nov-12 01:24N 28°08' W 015°26'0 0.0
2017-Nov-12 00:57N 28°08' W 015°26'0 0.0
2017-Nov-12 00:30N 28°08' W 015°26'0 0.0
2017-Nov-11 23:57N 28°08' W 015°26'0 0.0
2017-Nov-11 23:24N 28°08' W 015°26'0 0.0
2017-Nov-11 23:00N 28°08' W 015°26'0 0.0
2017-Nov-11 22:30N 28°08' W 015°26'0 0.0
2017-Nov-11 22:00N 28°08' W 015°26'0 0.0
2017-Nov-11 21:27N 28°08' W 015°26'0 0.0
2017-Nov-11 21:00N 28°08' W 015°26'0 0.0
2017-Nov-11 20:30N 28°08' W 015°26'0 0.0
2017-Nov-11 20:00N 28°08' W 015°26'0 0.0
2017-Nov-11 19:30N 28°08' W 015°26'0 0.0
2017-Nov-11 19:00N 28°08' W 015°26'0 0.0
2017-Nov-11 18:30N 28°08' W 015°26'0 0.0
2017-Nov-11 18:00N 28°08' W 015°26'0 0.0
2017-Nov-11 17:21N 28°08' W 015°26'0 0.0
2017-Nov-11 17:00N 28°08' W 015°26'0 0.0
2017-Nov-11 16:18N 28°08' W 015°26'0 0.0
2017-Nov-11 15:48N 28°08' W 015°26'0 0.0
2017-Nov-11 15:24N 28°08' W 015°26'0 0.0
2017-Nov-11 14:54N 28°08' W 015°26'0 0.0
2017-Nov-11 14:24N 28°08' W 015°26'0 0.0
2017-Nov-11 13:54N 28°08' W 015°26'0 0.0
2017-Nov-11 13:24N 28°08' W 015°26'0 0.0
2017-Nov-11 12:57N 28°08' W 015°26'0 0.0
2017-Nov-11 12:27N 28°08' W 015°26'0 0.0
2017-Nov-11 11:57N 28°08' W 015°26'0 0.0
2017-Nov-11 11:27N 28°08' W 015°26'0 0.0
2017-Nov-11 10:57N 28°08' W 015°26'0 0.0
2017-Nov-11 10:27N 28°08' W 015°26'0 0.0
2017-Nov-11 10:00N 28°08' W 015°26'0 0.0
2017-Nov-11 09:12N 28°08' W 015°26'0 0.0
2017-Nov-11 09:00N 28°08' W 015°26'0 0.0
2017-Nov-11 08:30N 28°08' W 015°26'0 0.0
2017-Nov-11 07:57N 28°08' W 015°26'0 0.0
2017-Nov-11 07:30N 28°08' W 015°26'0 0.0
2017-Nov-11 06:57N 28°08' W 015°26'0 0.0
2017-Nov-11 06:30N 28°08' W 015°26'0 0.0
2017-Nov-11 06:00N 28°08' W 015°26'0 0.0
2017-Nov-11 05:30N 28°08' W 015°26'0 0.0
2017-Nov-11 04:51N 28°08' W 015°26'0 0.0
2017-Nov-11 04:30N 28°08' W 015°26'0 0.0
2017-Nov-11 04:00N 28°08' W 015°26'0 0.0
2017-Nov-11 03:21N 28°08' W 015°26'0 0.0
2017-Nov-11 02:51N 28°08' W 015°26'0 0.0
2017-Nov-11 02:21N 28°08' W 015°26'0 0.0
2017-Nov-11 01:48N 28°08' W 015°26'0 0.0
2017-Nov-11 01:24N 28°08' W 015°26'0 0.0
2017-Nov-11 00:54N 28°08' W 015°26'0 0.0
2017-Nov-11 00:24N 28°08' W 015°26'0 0.0
2017-Nov-10 23:54N 28°08' W 015°26'0 0.0
2017-Nov-10 23:21N 28°08' W 015°26'0 0.0
2017-Nov-10 22:51N 28°08' W 015°26'0 0.0
2017-Nov-10 22:27N 28°08' W 015°26'0 0.0
2017-Nov-10 21:57N 28°08' W 015°26'0 0.0
2017-Nov-10 21:24N 28°08' W 015°26'0 0.0
2017-Nov-10 20:54N 28°08' W 015°26'0 0.0
2017-Nov-10 20:24N 28°08' W 015°26'0 0.0
2017-Nov-10 20:00N 28°08' W 015°26'0 0.0
2017-Nov-10 19:27N 28°08' W 015°26'0 0.0
2017-Nov-10 19:00N 28°08' W 015°26'0 0.0
2017-Nov-10 18:30N 28°08' W 015°26'0 0.0
2017-Nov-10 18:00N 28°08' W 015°26'0 0.0
2017-Nov-10 17:30N 28°08' W 015°26'0 0.0
2017-Nov-10 17:00N 28°08' W 015°26'0 0.0
2017-Nov-10 16:30N 28°08' W 015°26'0 0.0
2017-Nov-10 16:00N 28°08' W 015°26'0 0.0
2017-Nov-10 15:18N 28°08' W 015°26'0 0.0
2017-Nov-10 15:00N 28°08' W 015°26'0 0.0
2017-Nov-10 14:30N 28°08' W 015°26'0 0.0
2017-Nov-10 14:00N 28°08' W 015°26'0 0.0
2017-Nov-10 13:21N 28°08' W 015°26'0 0.0
2017-Nov-10 12:33N 28°08' W 015°26'0 0.0
2017-Nov-10 12:21N 28°08' W 015°26'0 0.0
2017-Nov-10 11:48N 28°08' W 015°26'0 0.0
2017-Nov-10 11:24N 28°08' W 015°26'0 0.0
2017-Nov-10 10:54N 28°08' W 015°26'0 0.0
2017-Nov-10 10:21N 28°08' W 015°26'0 0.0
2017-Nov-10 09:54N 28°08' W 015°26'0 0.0
2017-Nov-10 09:21N 28°08' W 015°26'0 0.0
2017-Nov-10 08:57N 28°08' W 015°26'0 0.0
2017-Nov-10 08:27N 28°08' W 015°26'0 0.0
2017-Nov-10 07:57N 28°08' W 015°26'0 0.0
2017-Nov-10 07:27N 28°08' W 015°26'0 0.0
2017-Nov-10 06:57N 28°08' W 015°26'0 0.0
2017-Nov-10 06:24N 28°08' W 015°26'0 0.0
2017-Nov-10 05:57N 28°08' W 015°26'0 0.0
2017-Nov-10 05:30N 28°08' W 015°26'0 0.0
2017-Nov-10 05:00N 28°08' W 015°26'0 0.0
2017-Nov-10 04:27N 28°08' W 015°26'0 0.0
2017-Nov-10 04:00N 28°08' W 015°26'0 0.0
2017-Nov-10 03:30N 28°08' W 015°26'0 0.0
2017-Nov-10 03:00N 28°08' W 015°26'0 0.0
2017-Nov-10 02:30N 28°08' W 015°26'0 0.0
2017-Nov-10 02:00N 28°08' W 015°26'0 0.0
2017-Nov-10 01:18N 28°08' W 015°26'0 0.0
2017-Nov-10 00:51N 28°08' W 015°26'0 0.0
2017-Nov-10 00:30N 28°08' W 015°26'0 0.0
2017-Nov-10 00:00N 28°08' W 015°26'0 0.0
2017-Nov-09 23:21N 28°08' W 015°26'0 0.0
2017-Nov-09 22:51N 28°08' W 015°25'0 0.0
2017-Nov-09 22:21N 28°08' W 015°25'0 0.0
2017-Nov-09 21:48N 28°08' W 015°26'0 0.0
2017-Nov-09 21:18N 28°08' W 015°26'0 0.0
2017-Nov-09 20:54N 28°08' W 015°26'0 0.0
2017-Nov-09 20:24N 28°08' W 015°26'0 0.0
2017-Nov-09 19:54N 28°08' W 015°26'0 0.0
2017-Nov-09 19:24N 28°08' W 015°26'0 0.0
2017-Nov-09 18:57N 28°08' W 015°26'0 0.0
2017-Nov-09 18:27N 28°08' W 015°26'0 0.0
2017-Nov-09 17:57N 28°08' W 015°26'0 0.0
2017-Nov-09 17:27N 28°08' W 015°26'0 0.0
2017-Nov-09 16:57N 28°08' W 015°26'0 0.0
2017-Nov-09 16:27N 28°08' W 015°26'0 0.0
2017-Nov-09 16:00N 28°08' W 015°26'0 0.0
2017-Nov-09 15:30N 28°08' W 015°26'0 0.0
2017-Nov-09 15:00N 28°08' W 015°26'0 0.0
2017-Nov-09 14:30N 28°08' W 015°26'0 0.0
2017-Nov-09 14:00N 28°08' W 015°26'0 0.0
2017-Nov-09 13:30N 28°08' W 015°26'0 0.0
2017-Nov-09 13:00N 28°08' W 015°26'0 0.0
2017-Nov-09 12:30N 28°08' W 015°26'0 0.0
2017-Nov-09 12:00N 28°08' W 015°26'0 0.0
2017-Nov-09 11:30N 28°08' W 015°26'0 0.0
2017-Nov-09 11:00N 28°08' W 015°26'0 0.0
2017-Nov-09 10:30N 28°08' W 015°26'0 0.0
2017-Nov-09 10:00N 28°08' W 015°26'0 0.0
2017-Nov-09 09:30N 28°08' W 015°26'0 0.0
2017-Nov-09 08:51N 28°08' W 015°26'0 0.0
2017-Nov-09 08:21N 28°08' W 015°26'0 0.0
2017-Nov-09 07:51N 28°08' W 015°26'0 0.0
2017-Nov-09 07:21N 28°08' W 015°26'0 0.0
2017-Nov-09 06:54N 28°08' W 015°26'0 0.0
2017-Nov-09 06:24N 28°08' W 015°26'0 0.0
2017-Nov-09 05:54N 28°08' W 015°26'0 0.0
2017-Nov-09 05:24N 28°08' W 015°25'0 0.0
2017-Nov-09 04:57N 28°08' W 015°25'0 0.0
2017-Nov-09 04:27N 28°08' W 015°25'0 0.0
2017-Nov-09 03:54N 28°08' W 015°25'0 0.0
2017-Nov-09 03:24N 28°08' W 015°26'0 0.0
2017-Nov-09 02:57N 28°08' W 015°26'0 0.0
2017-Nov-09 02:27N 28°08' W 015°26'0 0.0
2017-Nov-09 02:00N 28°08' W 015°26'0 0.0
2017-Nov-09 01:30N 28°08' W 015°26'0 0.0
2017-Nov-09 01:00N 28°08' W 015°26'0 0.0
2017-Nov-09 00:30N 28°08' W 015°26'0 0.0
2017-Nov-09 00:00N 28°08' W 015°26'0 0.0
2017-Nov-08 23:30N 28°08' W 015°26'0 0.0
2017-Nov-08 23:00N 28°08' W 015°25'0 0.0
2017-Nov-08 22:30N 28°08' W 015°26'0 0.0
2017-Nov-08 22:00N 28°08' W 015°26'0 0.0
2017-Nov-08 21:30N 28°08' W 015°26'0 0.0
2017-Nov-08 20:48N 28°08' W 015°26'0 0.0
2017-Nov-08 20:30N 28°08' W 015°26'0 0.0
2017-Nov-08 20:00N 28°08' W 015°26'0 0.0
2017-Nov-08 19:30N 28°08' W 015°26'0 0.0
2017-Nov-08 18:51N 28°08' W 015°26'0 0.0
2017-Nov-08 18:21N 28°08' W 015°26'0 0.0
2017-Nov-08 17:54N 28°08' W 015°26'0 0.0
2017-Nov-08 17:24N 28°08' W 015°26'0 0.0
2017-Nov-08 16:54N 28°08' W 015°26'0 0.0
2017-Nov-08 16:21N 28°08' W 015°26'0 0.0
2017-Nov-08 15:51N 28°08' W 015°26'0 0.0
2017-Nov-08 15:24N 28°08' W 015°26'0 0.0
2017-Nov-08 14:54N 28°08' W 015°25'0 0.0
2017-Nov-08 14:27N 28°08' W 015°25'0 0.0
2017-Nov-08 13:57N 28°08' W 015°25'0 0.2
2017-Nov-08 13:20N 28°08' W 015°25'0 0.7
2017-Nov-08 12:58N 28°08' W 015°26'0 0.0
2017-Nov-08 12:28N 28°08' W 015°25'0 0.0
2017-Nov-08 11:58N 28°08' W 015°26'0 0.0
2017-Nov-08 11:28N 28°08' W 015°25'0 0.0
2017-Nov-08 10:58N 28°08' W 015°26'0 0.0
2017-Nov-08 10:28N 28°08' W 015°25'0 0.0
2017-Nov-08 09:49N 28°08' W 015°25'0 0.0
2017-Nov-08 09:19N 28°08' W 015°26'0 0.0
2017-Nov-08 08:49N 28°08' W 015°25'0 0.0
2017-Nov-08 08:22N 28°08' W 015°25'0 0.0
2017-Nov-08 07:52N 28°08' W 015°25'0 0.0
2017-Nov-08 07:22N 28°08' W 015°25'0 0.0
2017-Nov-08 06:52N 28°08' W 015°26'0 0.0
2017-Nov-08 06:22N 28°08' W 015°25'0 0.0
2017-Nov-08 05:52N 28°08' W 015°25'0 0.0
2017-Nov-08 05:22N 28°08' W 015°26'0 0.0
2017-Nov-08 04:52N 28°08' W 015°25'0 0.0
2017-Nov-08 04:25N 28°08' W 015°25'0 0.0
2017-Nov-08 03:55N 28°08' W 015°26'0 0.0
2017-Nov-08 03:25N 28°08' W 015°25'0 0.0
2017-Nov-08 02:55N 28°08' W 015°25'0 0.0
2017-Nov-08 02:25N 28°08' W 015°26'0 0.0
2017-Nov-08 01:58N 28°08' W 015°26'0 0.0
2017-Nov-08 01:28N 28°08' W 015°25'0 0.0
2017-Nov-08 00:58N 28°08' W 015°25'0 0.0
2017-Nov-08 00:25N 28°08' W 015°25'0 0.0
2017-Nov-07 23:58N 28°08' W 015°25'0 0.0
2017-Nov-07 23:28N 28°08' W 015°26'0 0.0
2017-Nov-07 22:58N 28°08' W 015°26'0 0.0
2017-Nov-07 22:28N 28°08' W 015°25'0 0.0
2017-Nov-07 21:58N 28°08' W 015°25'0 0.0
2017-Nov-07 21:28N 28°08' W 015°25'0 0.1
2017-Nov-07 21:00N 28°08' W 015°26'2 4.1
2017-Nov-07 20:30N 28°07' W 015°23'3 6.1
2017-Nov-07 20:00N 28°09' W 015°20'3 6.2
2017-Nov-07 19:30N 28°11' W 015°18'3 5.7
2017-Nov-07 19:00N 28°14' W 015°16'3 6.1
2017-Nov-07 18:30N 28°16' W 015°14'3 6.3
2017-Nov-07 18:00N 28°19' W 015°12'3 6.5
2017-Nov-07 17:30N 28°22' W 015°10'3 6.6
2017-Nov-07 17:00N 28°24' W 015°08'  
Track history (hours):
 
Tides and Currents Weather Stations Pressure Air Temp Water Temp Dewpoint Dewpoint Depression Visibility Wind Speed Wind Dir Waves Ship Positions

Najora

Last reported at 2017-Nov-14 04:42 UTC. Time now 2017-Nov-21 19:20 UTC.
Position N 27°54' W 015°14'.

Length 14 m.

Type: Sailing vessel. MMSI: 227647840.

Date/timePositionNaut miles runAvg speedWind from/ knotsBaromVisibWave heightAir tempDewpointWater temp
2017-Nov-14 04:42N 27°54' W 015°14'2 6.4
2017-Nov-14 04:22N 27°56' W 015°15'2 5.9
2017-Nov-14 04:00N 27°57' W 015°17'3 5.2
2017-Nov-14 03:30N 27°60' W 015°18'3 5.6
2017-Nov-14 03:00N 28°02' W 015°20'3 5.7
2017-Nov-14 02:30N 28°04' W 015°22'3 5.0
2017-Nov-14 01:58N 28°06' W 015°24'2 1.5
2017-Nov-14 00:40N 28°08' W 015°26'0 0.0
2017-Nov-14 00:25N 28°08' W 015°26'0 0.0
2017-Nov-13 23:58N 28°08' W 015°26'0 0.0
2017-Nov-13 23:28N 28°08' W 015°26'0 0.0
2017-Nov-13 22:52N 28°08' W 015°26'0 0.0
2017-Nov-13 22:25N 28°08' W 015°26'0 0.0
2017-Nov-13 21:55N 28°08' W 015°26'0 0.0
2017-Nov-12 21:55N 28°08' W 015°26'0 0.0
2017-Nov-12 18:43N 28°08' W 015°26'0 0.0
2017-Nov-12 18:28N 28°08' W 015°26'0 0.0
2017-Nov-12 17:49N 28°08' W 015°26'0 0.0
2017-Nov-12 17:19N 28°08' W 015°26'0 0.0
2017-Nov-12 16:52N 28°08' W 015°26'0 0.0
2017-Nov-12 16:22N 28°08' W 015°26'0 0.0
2017-Nov-12 15:46N 28°08' W 015°26'0 0.0
2017-Nov-12 15:22N 28°08' W 015°26'0 0.0
2017-Nov-12 14:52N 28°08' W 015°26'0 0.0
2017-Nov-12 14:22N 28°08' W 015°26'0 0.0
2017-Nov-12 13:34N 28°08' W 015°26'0 0.0
2017-Nov-12 13:25N 28°08' W 015°26'0 0.0
2017-Nov-12 12:55N 28°08' W 015°26'0 0.0
2017-Nov-12 12:22N 28°08' W 015°26'0 0.0
2017-Nov-12 11:58N 28°08' W 015°26'0 0.0
2017-Nov-12 11:28N 28°08' W 015°26'0 0.0
2017-Nov-12 10:55N 28°08' W 015°26'0 0.0
2017-Nov-12 10:22N 28°08' W 015°26'0 0.8
2017-Nov-12 10:00N 28°08' W 015°26'0 0.0
2017-Nov-12 09:30N 28°08' W 015°26'0 0.0
2017-Nov-12 09:00N 28°08' W 015°26'0 0.0
2017-Nov-12 08:30N 28°08' W 015°26'1 1.5
2017-Nov-12 08:00N 28°07' W 015°26'1 1.5
2017-Nov-12 07:30N 28°08' W 015°26'0 0.0
2017-Nov-12 06:51N 28°08' W 015°26'0 0.0
2017-Nov-12 06:21N 28°08' W 015°26'0 0.0
2017-Nov-12 05:51N 28°08' W 015°26'0 0.0
2017-Nov-12 05:24N 28°08' W 015°26'0 0.0
2017-Nov-12 04:54N 28°08' W 015°26'0 0.0
2017-Nov-12 04:24N 28°08' W 015°26'0 0.0
2017-Nov-12 03:54N 28°08' W 015°26'0 0.0
2017-Nov-12 03:24N 28°08' W 015°26'0 0.0
2017-Nov-12 02:57N 28°08' W 015°26'0 0.0
2017-Nov-12 02:27N 28°08' W 015°26'0 0.0
2017-Nov-12 01:57N 28°08' W 015°26'0 0.0
2017-Nov-12 01:24N 28°08' W 015°26'0 0.0
2017-Nov-12 00:57N 28°08' W 015°26'0 0.0
2017-Nov-12 00:30N 28°08' W 015°26'0 0.0
2017-Nov-11 23:57N 28°08' W 015°26'0 0.0
2017-Nov-11 23:24N 28°08' W 015°26'0 0.0
2017-Nov-11 23:00N 28°08' W 015°26'0 0.0
2017-Nov-11 22:30N 28°08' W 015°26'0 0.0
2017-Nov-11 22:00N 28°08' W 015°26'0 0.0
2017-Nov-11 21:27N 28°08' W 015°26'0 0.0
2017-Nov-11 21:00N 28°08' W 015°26'0 0.0
2017-Nov-11 20:30N 28°08' W 015°26'0 0.0
2017-Nov-11 20:00N 28°08' W 015°26'0 0.0
2017-Nov-11 19:30N 28°08' W 015°26'0 0.0
2017-Nov-11 19:00N 28°08' W 015°26'0 0.0
2017-Nov-11 18:30N 28°08' W 015°26'0 0.0
2017-Nov-11 18:00N 28°08' W 015°26'0 0.0
2017-Nov-11 17:21N 28°08' W 015°26'0 0.0
2017-Nov-11 17:00N 28°08' W 015°26'0 0.0
2017-Nov-11 16:18N 28°08' W 015°26'0 0.0
2017-Nov-11 15:48N 28°08' W 015°26'0 0.0
2017-Nov-11 15:24N 28°08' W 015°26'0 0.0
2017-Nov-11 14:54N 28°08' W 015°26'0 0.0
2017-Nov-11 14:24N 28°08' W 015°26'0 0.0
2017-Nov-11 13:54N 28°08' W 015°26'0 0.0
2017-Nov-11 13:24N 28°08' W 015°26'0 0.0
2017-Nov-11 12:57N 28°08' W 015°26'0 0.0
2017-Nov-11 12:27N 28°08' W 015°26'0 0.0
2017-Nov-11 11:57N 28°08' W 015°26'0 0.0
2017-Nov-11 11:27N 28°08' W 015°26'0 0.0
2017-Nov-11 10:57N 28°08' W 015°26'0 0.0
2017-Nov-11 10:27N 28°08' W 015°26'0 0.0
2017-Nov-11 10:00N 28°08' W 015°26'0 0.0
2017-Nov-11 09:12N 28°08' W 015°26'0 0.0
2017-Nov-11 09:00N 28°08' W 015°26'0 0.0
2017-Nov-11 08:30N 28°08' W 015°26'0 0.0
2017-Nov-11 07:57N 28°08' W 015°26'0 0.0
2017-Nov-11 07:30N 28°08' W 015°26'0 0.0
2017-Nov-11 06:57N 28°08' W 015°26'0 0.0
2017-Nov-11 06:30N 28°08' W 015°26'0 0.0
2017-Nov-11 06:00N 28°08' W 015°26'0 0.0
2017-Nov-11 05:30N 28°08' W 015°26'0 0.0
2017-Nov-11 04:51N 28°08' W 015°26'0 0.0
2017-Nov-11 04:30N 28°08' W 015°26'0 0.0
2017-Nov-11 04:00N 28°08' W 015°26'0 0.0
2017-Nov-11 03:21N 28°08' W 015°26'0 0.0
2017-Nov-11 02:51N 28°08' W 015°26'0 0.0
2017-Nov-11 02:21N 28°08' W 015°26'0 0.0
2017-Nov-11 01:48N 28°08' W 015°26'0 0.0
2017-Nov-11 01:24N 28°08' W 015°26'0 0.0
2017-Nov-11 00:54N 28°08' W 015°26'0 0.0
2017-Nov-11 00:24N 28°08' W 015°26'0 0.0
2017-Nov-10 23:54N 28°08' W 015°26'0 0.0
2017-Nov-10 23:21N 28°08' W 015°26'0 0.0
2017-Nov-10 22:51N 28°08' W 015°26'0 0.0
2017-Nov-10 22:27N 28°08' W 015°26'0 0.0
2017-Nov-10 21:57N 28°08' W 015°26'0 0.0
2017-Nov-10 21:24N 28°08' W 015°26'0 0.0
2017-Nov-10 20:54N 28°08' W 015°26'0 0.0
2017-Nov-10 20:24N 28°08' W 015°26'0 0.0
2017-Nov-10 20:00N 28°08' W 015°26'0 0.0
2017-Nov-10 19:27N 28°08' W 015°26'0 0.0
2017-Nov-10 19:00N 28°08' W 015°26'0 0.0
2017-Nov-10 18:30N 28°08' W 015°26'0 0.0
2017-Nov-10 18:00N 28°08' W 015°26'0 0.0
2017-Nov-10 17:30N 28°08' W 015°26'0 0.0
2017-Nov-10 17:00N 28°08' W 015°26'0 0.0
2017-Nov-10 16:30N 28°08' W 015°26'0 0.0
2017-Nov-10 16:00N 28°08' W 015°26'0 0.0
2017-Nov-10 15:18N 28°08' W 015°26'0 0.0
2017-Nov-10 15:00N 28°08' W 015°26'0 0.0
2017-Nov-10 14:30N 28°08' W 015°26'0 0.0
2017-Nov-10 14:00N 28°08' W 015°26'0 0.0
2017-Nov-10 13:21N 28°08' W 015°26'0 0.0
2017-Nov-10 12:33N 28°08' W 015°26'0 0.0
2017-Nov-10 12:21N 28°08' W 015°26'0 0.0
2017-Nov-10 11:48N 28°08' W 015°26'0 0.0
2017-Nov-10 11:24N 28°08' W 015°26'0 0.0
2017-Nov-10 10:54N 28°08' W 015°26'0 0.0
2017-Nov-10 10:21N 28°08' W 015°26'0 0.0
2017-Nov-10 09:54N 28°08' W 015°26'0 0.0
2017-Nov-10 09:21N 28°08' W 015°26'0 0.0
2017-Nov-10 08:57N 28°08' W 015°26'0 0.0
2017-Nov-10 08:27N 28°08' W 015°26'0 0.0
2017-Nov-10 07:57N 28°08' W 015°26'0 0.0
2017-Nov-10 07:27N 28°08' W 015°26'0 0.0
2017-Nov-10 06:57N 28°08' W 015°26'0 0.0
2017-Nov-10 06:24N 28°08' W 015°26'0 0.0
2017-Nov-10 05:57N 28°08' W 015°26'0 0.0
2017-Nov-10 05:30N 28°08' W 015°26'0 0.0
2017-Nov-10 05:00N 28°08' W 015°26'0 0.0
2017-Nov-10 04:27N 28°08' W 015°26'0 0.0
2017-Nov-10 04:00N 28°08' W 015°26'0 0.0
2017-Nov-10 03:30N 28°08' W 015°26'0 0.0
2017-Nov-10 03:00N 28°08' W 015°26'0 0.0
2017-Nov-10 02:30N 28°08' W 015°26'0 0.0
2017-Nov-10 02:00N 28°08' W 015°26'0 0.0
2017-Nov-10 01:18N 28°08' W 015°26'0 0.0
2017-Nov-10 00:51N 28°08' W 015°26'0 0.0
2017-Nov-10 00:30N 28°08' W 015°26'0 0.0
2017-Nov-10 00:00N 28°08' W 015°26'0 0.0
2017-Nov-09 23:21N 28°08' W 015°26'0 0.0
2017-Nov-09 22:51N 28°08' W 015°25'0 0.0
2017-Nov-09 22:21N 28°08' W 015°25'0 0.0
2017-Nov-09 21:48N 28°08' W 015°26'0 0.0
2017-Nov-09 21:18N 28°08' W 015°26'0 0.0
2017-Nov-09 20:54N 28°08' W 015°26'0 0.0
2017-Nov-09 20:24N 28°08' W 015°26'0 0.0
2017-Nov-09 19:54N 28°08' W 015°26'0 0.0
2017-Nov-09 19:24N 28°08' W 015°26'0 0.0
2017-Nov-09 18:57N 28°08' W 015°26'0 0.0
2017-Nov-09 18:27N 28°08' W 015°26'0 0.0
2017-Nov-09 17:57N 28°08' W 015°26'0 0.0
2017-Nov-09 17:27N 28°08' W 015°26'0 0.0
2017-Nov-09 16:57N 28°08' W 015°26'0 0.0
2017-Nov-09 16:27N 28°08' W 015°26'0 0.0
2017-Nov-09 16:00N 28°08' W 015°26'0 0.0
2017-Nov-09 15:30N 28°08' W 015°26'0 0.0
2017-Nov-09 15:00N 28°08' W 015°26'0 0.0
2017-Nov-09 14:30N 28°08' W 015°26'0 0.0
2017-Nov-09 14:00N 28°08' W 015°26'0 0.0
2017-Nov-09 13:30N 28°08' W 015°26'0 0.0
2017-Nov-09 13:00N 28°08' W 015°26'0 0.0
2017-Nov-09 12:30N 28°08' W 015°26'0 0.0
2017-Nov-09 12:00N 28°08' W 015°26'0 0.0
2017-Nov-09 11:30N 28°08' W 015°26'0 0.0
2017-Nov-09 11:00N 28°08' W 015°26'0 0.0
2017-Nov-09 10:30N 28°08' W 015°26'0 0.0
2017-Nov-09 10:00N 28°08' W 015°26'0 0.0
2017-Nov-09 09:30N 28°08' W 015°26'0 0.0
2017-Nov-09 08:51N 28°08' W 015°26'0 0.0
2017-Nov-09 08:21N 28°08' W 015°26'0 0.0
2017-Nov-09 07:51N 28°08' W 015°26'0 0.0
2017-Nov-09 07:21N 28°08' W 015°26'0 0.0
2017-Nov-09 06:54N 28°08' W 015°26'0 0.0
2017-Nov-09 06:24N 28°08' W 015°26'0 0.0
2017-Nov-09 05:54N 28°08' W 015°26'0 0.0
2017-Nov-09 05:24N 28°08' W 015°25'0 0.0
2017-Nov-09 04:57N 28°08' W 015°25'0 0.0
2017-Nov-09 04:27N 28°08' W 015°25'0 0.0
2017-Nov-09 03:54N 28°08' W 015°25'0 0.0
2017-Nov-09 03:24N 28°08' W 015°26'0 0.0
2017-Nov-09 02:57N 28°08' W 015°26'0 0.0
2017-Nov-09 02:27N 28°08' W 015°26'0 0.0
2017-Nov-09 02:00N 28°08' W 015°26'0 0.0
2017-Nov-09 01:30N 28°08' W 015°26'0 0.0
2017-Nov-09 01:00N 28°08' W 015°26'0 0.0
2017-Nov-09 00:30N 28°08' W 015°26'0 0.0
2017-Nov-09 00:00N 28°08' W 015°26'0 0.0
2017-Nov-08 23:30N 28°08' W 015°26'0 0.0
2017-Nov-08 23:00N 28°08' W 015°25'0 0.0
2017-Nov-08 22:30N 28°08' W 015°26'0 0.0
2017-Nov-08 22:00N 28°08' W 015°26'0 0.0
2017-Nov-08 21:30N 28°08' W 015°26'0 0.0
2017-Nov-08 20:48N 28°08' W 015°26'0 0.0
2017-Nov-08 20:30N 28°08' W 015°26'0 0.0
2017-Nov-08 20:00N 28°08' W 015°26'0 0.0
2017-Nov-08 19:30N 28°08' W 015°26'0 0.0
2017-Nov-08 18:51N 28°08' W 015°26'0 0.0
2017-Nov-08 18:21N 28°08' W 015°26'0 0.0
2017-Nov-08 17:54N 28°08' W 015°26'0 0.0
2017-Nov-08 17:24N 28°08' W 015°26'0 0.0
2017-Nov-08 16:54N 28°08' W 015°26'0 0.0
2017-Nov-08 16:21N 28°08' W 015°26'0 0.0
2017-Nov-08 15:51N 28°08' W 015°26'0 0.0
2017-Nov-08 15:24N 28°08' W 015°26'0 0.0
2017-Nov-08 14:54N 28°08' W 015°25'0 0.0
2017-Nov-08 14:27N 28°08' W 015°25'0 0.0
2017-Nov-08 13:57N 28°08' W 015°25'0 0.2
2017-Nov-08 13:20N 28°08' W 015°25'0 0.7
2017-Nov-08 12:58N 28°08' W 015°26'0 0.0
2017-Nov-08 12:28N 28°08' W 015°25'0 0.0
2017-Nov-08 11:58N 28°08' W 015°26'0 0.0
2017-Nov-08 11:28N 28°08' W 015°25'0 0.0
2017-Nov-08 10:58N 28°08' W 015°26'0 0.0
2017-Nov-08 10:28N 28°08' W 015°25'0 0.0
2017-Nov-08 09:49N 28°08' W 015°25'0 0.0
2017-Nov-08 09:19N 28°08' W 015°26'0 0.0
2017-Nov-08 08:49N 28°08' W 015°25'0 0.0
2017-Nov-08 08:22N 28°08' W 015°25'0 0.0
2017-Nov-08 07:52N 28°08' W 015°25'0 0.0
2017-Nov-08 07:22N 28°08' W 015°25'0 0.0
2017-Nov-08 06:52N 28°08' W 015°26'0 0.0
2017-Nov-08 06:22N 28°08' W 015°25'0 0.0
2017-Nov-08 05:52N 28°08' W 015°25'0 0.0
2017-Nov-08 05:22N 28°08' W 015°26'0 0.0
2017-Nov-08 04:52N 28°08' W 015°25'0 0.0
2017-Nov-08 04:25N 28°08' W 015°25'0 0.0
2017-Nov-08 03:55N 28°08' W 015°26'0 0.0
2017-Nov-08 03:25N 28°08' W 015°25'0 0.0
2017-Nov-08 02:55N 28°08' W 015°25'0 0.0
2017-Nov-08 02:25N 28°08' W 015°26'0 0.0
2017-Nov-08 01:58N 28°08' W 015°26'0 0.0
2017-Nov-08 01:28N 28°08' W 015°25'0 0.0
2017-Nov-08 00:58N 28°08' W 015°25'0 0.0
2017-Nov-08 00:25N 28°08' W 015°25'0 0.0
2017-Nov-07 23:58N 28°08' W 015°25'0 0.0
2017-Nov-07 23:28N 28°08' W 015°26'0 0.0
2017-Nov-07 22:58N 28°08' W 015°26'0 0.0
2017-Nov-07 22:28N 28°08' W 015°25'0 0.0
2017-Nov-07 21:58N 28°08' W 015°25'0 0.0
2017-Nov-07 21:28N 28°08' W 015°25'0 0.1
2017-Nov-07 21:00N 28°08' W 015°26'2 4.1
2017-Nov-07 20:30N 28°07' W 015°23'3 6.1
2017-Nov-07 20:00N 28°09' W 015°20'3 6.2
2017-Nov-07 19:30N 28°11' W 015°18'3 5.7
2017-Nov-07 19:00N 28°14' W 015°16'3 6.1
2017-Nov-07 18:30N 28°16' W 015°14'3 6.3
2017-Nov-07 18:00N 28°19' W 015°12'3 6.5
2017-Nov-07 17:30N 28°22' W 015°10'3 6.6
2017-Nov-07 17:00N 28°24' W 015°08'  

Dump ship's entire track history